createdAt,value
2019-05-19T00:02:25.053Z,99.90
2019-05-19T00:05:06.890Z,99.90
2019-05-19T00:07:55.676Z,99.90
2019-05-19T00:10:36.865Z,99.90
2019-05-19T00:13:25.879Z,99.90
2019-05-19T00:16:08.245Z,99.90
2019-05-19T00:18:56.501Z,99.90
2019-05-19T00:21:37.230Z,99.90
2019-05-19T00:24:19.230Z,99.90
2019-05-19T00:26:54.719Z,99.90
2019-05-19T00:29:36.283Z,99.90
2019-05-19T00:32:12.565Z,99.90
2019-05-19T00:34:54.533Z,99.90
2019-05-19T00:37:35.727Z,99.90
2019-05-19T00:40:21.428Z,99.90
2019-05-19T00:42:56.331Z,99.90
2019-05-19T00:45:38.291Z,99.90
2019-05-19T00:48:14.109Z,99.90
2019-05-19T00:50:55.442Z,99.90
2019-05-19T00:53:36.851Z,99.90
2019-05-19T00:56:11.659Z,99.90
2019-05-19T00:58:53.676Z,99.90
2019-05-19T01:01:29.154Z,99.90
2019-05-19T01:04:11.017Z,99.90
2019-05-19T01:06:46.514Z,99.90
2019-05-19T01:09:30.385Z,99.90
2019-05-19T01:12:05.169Z,99.90
2019-05-19T01:14:46.743Z,99.90
2019-05-19T01:17:21.971Z,99.90
2019-05-19T01:20:03.792Z,99.90
2019-05-19T01:22:45.867Z,99.90
2019-05-19T01:25:21.093Z,99.90
2019-05-19T01:28:02.913Z,99.90
2019-05-19T01:30:38.012Z,99.90
2019-05-19T01:33:20.269Z,99.90
2019-05-19T01:35:55.828Z,99.90
2019-05-19T01:38:44.428Z,99.90
2019-05-19T01:41:19.284Z,99.90
2019-05-19T01:44:01.447Z,99.90
2019-05-19T01:46:37.023Z,99.90
2019-05-19T01:49:18.500Z,99.90
2019-05-19T01:51:53.354Z,99.90
2019-05-19T01:54:35.405Z,99.90
2019-05-19T01:57:10.672Z,99.90
2019-05-19T01:59:59.126Z,99.90
2019-05-19T02:02:39.770Z,99.90
2019-05-19T02:05:28.987Z,99.90
2019-05-19T02:08:10.822Z,99.90
2019-05-19T02:10:59.820Z,99.90
2019-05-19T02:13:41.522Z,99.90
2019-05-19T02:16:29.844Z,99.90
2019-05-19T02:19:11.627Z,99.90
2019-05-19T02:21:53.475Z,99.90
2019-05-19T02:24:34.889Z,99.90
2019-05-19T02:27:10.355Z,99.90
2019-05-19T02:29:52.127Z,99.90
2019-05-19T02:32:27.090Z,99.90
2019-05-19T02:35:09.104Z,99.90
2019-05-19T02:37:50.710Z,99.90
2019-05-19T02:40:33.934Z,99.90
2019-05-19T02:43:09.530Z,99.90
2019-05-19T02:45:53.082Z,99.90
2019-05-19T02:48:28.774Z,99.90
2019-05-19T02:51:12.646Z,99.90
2019-05-19T02:53:50.282Z,99.90
2019-05-19T02:56:33.073Z,99.90
2019-05-19T02:59:07.921Z,99.90
2019-05-19T03:02:10.751Z,99.90
2019-05-19T03:04:58.157Z,99.90
2019-05-19T03:07:40.331Z,99.90
2019-05-19T03:10:28.395Z,99.90
2019-05-19T03:13:09.958Z,99.90
2019-05-19T03:15:58.081Z,99.90
2019-05-19T03:18:50.163Z,99.90
2019-05-19T03:21:31.134Z,99.90
2019-05-19T03:24:19.040Z,99.90
2019-05-19T03:27:00.783Z,99.90
2019-05-19T03:29:50.796Z,99.90
2019-05-19T03:32:33.592Z,99.90
2019-05-19T03:35:15.431Z,99.90
2019-05-19T03:37:50.358Z,99.90
2019-05-19T03:40:28.445Z,99.90
2019-05-19T03:42:56.974Z,99.90
2019-05-19T03:45:32.520Z,99.90
2019-05-19T03:48:01.079Z,99.90
2019-05-19T03:50:36.906Z,99.90
2019-05-19T03:53:05.507Z,99.90
2019-05-19T03:55:40.849Z,99.90
2019-05-19T03:58:09.389Z,99.90
2019-05-19T04:00:44.535Z,99.90
2019-05-19T04:03:19.797Z,99.90
2019-05-19T04:06:01.156Z,99.90
2019-05-19T04:08:36.652Z,99.90
2019-05-19T04:11:18.338Z,99.90
2019-05-19T04:14:00.539Z,99.90
2019-05-19T04:16:36.104Z,99.90
2019-05-19T04:19:17.742Z,99.90
2019-05-19T04:21:59.367Z,99.90
2019-05-19T04:24:41.346Z,99.90
2019-05-19T04:27:16.173Z,99.90
2019-05-19T04:29:57.331Z,99.90
2019-05-19T04:32:32.095Z,99.90
2019-05-19T04:35:13.302Z,99.90
2019-05-19T04:37:55.189Z,99.90
2019-05-19T04:40:30.856Z,99.90
2019-05-19T04:43:12.367Z,99.90
2019-05-19T04:45:47.223Z,99.90
2019-05-19T04:48:29.523Z,99.90
2019-05-19T04:51:11.068Z,99.90
2019-05-19T04:53:46.798Z,99.90
2019-05-19T04:56:29.079Z,99.90
2019-05-19T04:59:03.994Z,99.90
2019-05-19T05:01:46.063Z,99.90
2019-05-19T05:04:21.789Z,99.90
2019-05-19T05:07:03.460Z,99.90
2019-05-19T05:09:45.660Z,99.90
2019-05-19T05:12:20.485Z,99.90
2019-05-19T05:15:02.138Z,99.90
2019-05-19T05:17:44.438Z,99.90
2019-05-19T05:20:25.341Z,99.90
2019-05-19T05:23:07.007Z,99.90
2019-05-19T05:25:43.460Z,99.90
2019-05-19T05:28:25.074Z,99.90
2019-05-19T05:31:00.685Z,99.90
2019-05-19T05:33:42.194Z,99.90
2019-05-19T05:36:24.303Z,99.90
2019-05-19T05:39:05.964Z,99.90
2019-05-19T05:41:47.514Z,99.90
2019-05-19T05:44:22.454Z,99.90
2019-05-19T05:47:04.638Z,99.90
2019-05-19T05:49:41.606Z,99.90
2019-05-19T05:52:37.631Z,99.90
2019-05-19T05:54:59.963Z,99.90
2019-05-19T05:57:41.603Z,99.90
2019-05-19T06:00:17.417Z,99.90
2019-05-19T06:02:58.759Z,99.90
2019-05-19T06:05:33.206Z,99.90
2019-05-19T06:08:14.597Z,99.90
2019-05-19T06:10:43.088Z,99.90
2019-05-19T06:13:18.138Z,99.90
2019-05-19T06:15:46.730Z,99.90
2019-05-19T06:18:21.827Z,99.90
2019-05-19T06:20:50.486Z,99.90
2019-05-19T06:23:25.919Z,99.90
2019-05-19T06:25:54.458Z,99.90
2019-05-19T06:28:29.674Z,99.90
2019-05-19T06:30:58.151Z,99.90
2019-05-19T06:33:33.585Z,99.90
2019-05-19T06:36:02.131Z,99.90
2019-05-19T06:38:44.550Z,99.90
2019-05-19T06:41:13.169Z,99.90
2019-05-19T06:43:47.909Z,99.90
2019-05-19T06:46:22.554Z,99.90
2019-05-19T06:48:51.111Z,99.90
2019-05-19T06:51:26.658Z,99.90
2019-05-19T06:53:55.152Z,99.90
2019-05-19T06:56:30.744Z,99.90
2019-05-19T06:58:59.303Z,99.90
2019-05-19T07:01:34.973Z,99.90
2019-05-19T07:04:10.160Z,99.90
2019-05-19T07:06:58.915Z,99.90
2019-05-19T07:09:40.358Z,99.90
2019-05-19T07:12:28.487Z,99.90
2019-05-19T07:15:10.859Z,99.90
2019-05-19T07:17:58.955Z,99.90
2019-05-19T07:20:40.561Z,99.90
2019-05-19T07:23:29.293Z,99.90
2019-05-19T07:26:17.648Z,99.90
2019-05-19T07:28:59.851Z,99.90
2019-05-19T07:31:47.807Z,99.90
2019-05-19T07:34:28.548Z,99.90
2019-05-19T07:37:17.029Z,99.90
2019-05-19T07:39:59.293Z,99.90
2019-05-19T07:42:41.619Z,99.90
2019-05-19T07:45:16.904Z,99.90
2019-05-19T07:47:58.687Z,99.90
2019-05-19T07:50:37.700Z,99.90
2019-05-19T07:53:17.470Z,99.90
2019-05-19T07:55:52.497Z,99.90
2019-05-19T07:58:34.235Z,99.90
2019-05-19T08:01:09.192Z,99.90
2019-05-19T08:03:51.139Z,99.90
2019-05-19T08:06:33.451Z,99.90
2019-05-19T08:09:21.682Z,99.90
2019-05-19T08:12:04.239Z,99.90
2019-05-19T08:14:53.173Z,99.90
2019-05-19T08:17:40.872Z,99.90
2019-05-19T08:20:23.493Z,99.90
2019-05-19T08:23:12.153Z,99.90
2019-05-19T08:25:54.391Z,99.90
2019-05-19T08:28:42.484Z,99.90
2019-05-19T08:31:24.210Z,99.90
2019-05-19T08:34:12.335Z,99.90
2019-05-19T08:36:54.843Z,99.90
2019-05-19T08:39:42.553Z,99.90
2019-05-19T08:42:17.991Z,99.90
2019-05-19T08:44:59.953Z,99.90
2019-05-19T08:47:34.753Z,99.90
2019-05-19T08:50:17.445Z,99.90
2019-05-19T08:52:58.779Z,99.90
2019-05-19T08:55:33.901Z,99.90
2019-05-19T08:58:15.991Z,99.90
2019-05-19T09:00:50.583Z,99.90
2019-05-19T09:03:32.383Z,99.90
2019-05-19T09:06:20.958Z,99.90
2019-05-19T09:09:04.934Z,99.90
2019-05-19T09:11:53.042Z,99.90
2019-05-19T09:14:34.577Z,99.90
2019-05-19T09:17:23.722Z,99.90
2019-05-19T09:20:11.057Z,99.90
2019-05-19T09:22:52.665Z,99.90
2019-05-19T09:25:40.507Z,99.90
2019-05-19T09:28:29.817Z,99.90
2019-05-19T09:31:10.807Z,99.90
2019-05-19T09:33:58.840Z,99.90
2019-05-19T09:36:39.611Z,99.90
2019-05-19T09:39:28.455Z,99.90
2019-05-19T09:42:03.652Z,99.90
2019-05-19T09:44:45.575Z,99.90
2019-05-19T09:47:21.248Z,99.90
2019-05-19T09:50:03.674Z,99.90
2019-05-19T09:52:38.468Z,99.90
2019-05-19T09:55:21.113Z,99.90
2019-05-19T09:57:56.231Z,99.90
2019-05-19T10:00:39.586Z,99.90
2019-05-19T10:03:14.592Z,99.90
2019-05-19T10:05:56.180Z,99.90
2019-05-19T10:08:42.591Z,99.90
2019-05-19T10:11:38.408Z,99.90
2019-05-19T10:14:20.553Z,99.90
2019-05-19T10:16:56.124Z,99.90
2019-05-19T10:19:38.391Z,99.90
2019-05-19T10:22:13.325Z,99.90
2019-05-19T10:25:18.307Z,99.90
2019-05-19T10:27:32.760Z,99.90
2019-05-19T10:30:14.480Z,99.90
2019-05-19T10:32:50.082Z,99.90
2019-05-19T10:35:32.215Z,99.90
2019-05-19T10:38:07.116Z,99.90
2019-05-19T10:40:55.152Z,99.90
2019-05-19T10:43:30.344Z,99.90
2019-05-19T10:46:12.098Z,99.90
2019-05-19T10:48:47.617Z,99.90
2019-05-19T10:51:29.781Z,99.90
2019-05-19T10:54:04.385Z,99.90
2019-05-19T10:56:46.353Z,99.90
2019-05-19T10:59:21.069Z,99.90
2019-05-19T11:02:02.719Z,99.90
2019-05-19T11:04:37.774Z,99.90
2019-05-19T11:07:20.130Z,99.90
2019-05-19T11:10:01.733Z,98.30
2019-05-19T11:12:50.044Z,99.10
2019-05-19T11:15:38.306Z,99.50
2019-05-19T11:18:19.987Z,97.40
2019-05-19T11:21:09.013Z,97.20
2019-05-19T11:23:57.474Z,96.90
2019-05-19T11:26:38.410Z,96.40
2019-05-19T11:29:27.475Z,96.80
2019-05-19T11:32:09.078Z,96.40
2019-05-19T11:34:57.046Z,96.10
2019-05-19T11:37:44.674Z,97.40
2019-05-19T11:40:25.488Z,98.50
2019-05-19T11:43:07.670Z,96.70
2019-05-19T11:45:43.331Z,95.30
2019-05-19T11:48:24.808Z,93.70
2019-05-19T11:51:00.239Z,93.40
2019-05-19T11:53:41.919Z,94.80
2019-05-19T11:56:16.490Z,95.50
2019-05-19T11:58:58.520Z,94.90
2019-05-19T12:01:33.707Z,95.40
2019-05-19T12:04:15.684Z,98.50
2019-05-19T12:06:50.706Z,99.90
2019-05-19T12:09:39.283Z,97.50
2019-05-19T12:12:20.033Z,95.30
2019-05-19T12:15:08.920Z,94.70
2019-05-19T12:17:49.734Z,93.60
2019-05-19T12:20:38.013Z,96.30
2019-05-19T12:23:19.524Z,92.30
2019-05-19T12:25:54.406Z,91.20
2019-05-19T12:28:36.636Z,93.60
2019-05-19T12:31:11.949Z,88.80
2019-05-19T12:33:54.030Z,91.70
2019-05-19T12:36:29.184Z,90.20
2019-05-19T12:39:11.054Z,90.80
2019-05-19T12:41:47.794Z,91.10
2019-05-19T12:44:30.653Z,90.20
2019-05-19T12:47:13.870Z,91.20
2019-05-19T12:49:52.655Z,90.00
2019-05-19T12:52:34.612Z,90.10
2019-05-19T12:55:20.894Z,90.50
2019-05-19T12:57:56.110Z,86.70
2019-05-19T13:00:38.532Z,86.80
2019-05-19T13:03:14.539Z,86.70
2019-05-19T13:05:56.532Z,85.40
2019-05-19T13:08:32.183Z,90.60
2019-05-19T13:11:21.703Z,91.60
2019-05-19T13:14:11.442Z,91.10
2019-05-19T13:17:01.851Z,84.70
2019-05-19T13:19:54.402Z,84.80
2019-05-19T13:22:46.177Z,81.20
2019-05-19T13:25:30.424Z,80.20
2019-05-19T13:28:09.359Z,84.70
2019-05-19T13:30:52.163Z,84.50
2019-05-19T13:33:27.606Z,84.40
2019-05-19T13:36:09.751Z,83.60
2019-05-19T13:38:46.989Z,82.70
2019-05-19T13:41:29.721Z,85.80
2019-05-19T13:44:04.978Z,85.90
2019-05-19T13:46:48.043Z,88.10
2019-05-19T13:49:24.167Z,89.40
2019-05-19T13:52:07.773Z,90.30
2019-05-19T13:54:50.000Z,90.90
2019-05-19T13:57:25.091Z,91.60
2019-05-19T14:00:08.431Z,92.10
2019-05-19T14:02:52.395Z,92.80
2019-05-19T14:05:34.614Z,93.70
2019-05-19T14:08:16.985Z,93.60
2019-05-19T14:10:45.960Z,94.10
2019-05-19T14:13:21.851Z,94.10
2019-05-19T14:15:53.803Z,95.40
2019-05-19T14:18:29.707Z,95.90
2019-05-19T14:21:05.138Z,95.70
2019-05-19T14:24:02.404Z,97.30
2019-05-19T14:26:44.884Z,97.00
2019-05-19T14:29:34.768Z,98.20
2019-05-19T14:32:17.004Z,96.10
2019-05-19T14:35:04.531Z,98.40
2019-05-19T14:37:55.390Z,98.00
2019-05-19T14:40:43.327Z,98.10
2019-05-19T14:43:29.468Z,99.60
2019-05-19T14:46:11.924Z,99.40
2019-05-19T14:48:53.748Z,99.90
2019-05-19T14:51:29.017Z,99.90
2019-05-19T14:54:10.879Z,99.80
2019-05-19T14:56:45.764Z,99.90
2019-05-19T14:59:27.875Z,99.90
2019-05-19T15:02:03.158Z,99.90
2019-05-19T15:04:45.391Z,99.90
2019-05-19T15:07:20.174Z,99.90
2019-05-19T15:10:02.043Z,99.90
2019-05-19T15:12:43.282Z,99.90
2019-05-19T15:15:31.441Z,99.90
2019-05-19T15:18:12.461Z,99.90
2019-05-19T15:21:01.076Z,99.90
2019-05-19T15:23:50.267Z,99.90
2019-05-19T15:26:37.760Z,99.90
2019-05-19T15:29:18.841Z,99.90
2019-05-19T15:32:07.109Z,99.90
2019-05-19T15:34:49.687Z,99.90
2019-05-19T15:37:37.131Z,99.90
2019-05-19T15:40:19.183Z,99.90
2019-05-19T15:43:00.669Z,99.90
2019-05-19T15:45:42.273Z,99.90
2019-05-19T15:48:17.044Z,99.90
2019-05-19T15:50:59.237Z,99.90
2019-05-19T15:53:33.987Z,99.90
2019-05-19T15:56:15.618Z,99.90
2019-05-19T15:58:50.545Z,99.90
2019-05-19T16:01:32.083Z,99.90
2019-05-19T16:04:14.634Z,99.90
2019-05-19T16:06:50.749Z,99.90
2019-05-19T16:09:33.544Z,99.90
2019-05-19T16:12:22.943Z,99.90
2019-05-19T16:15:12.115Z,99.90
2019-05-19T16:17:55.074Z,99.90
2019-05-19T16:20:45.007Z,99.90
2019-05-19T16:23:20.301Z,99.90
2019-05-19T16:26:01.989Z,99.90
2019-05-19T16:28:37.487Z,99.90
2019-05-19T16:31:19.367Z,99.90
2019-05-19T16:33:54.119Z,99.90
2019-05-19T16:36:36.203Z,99.90
2019-05-19T16:39:25.413Z,99.90
2019-05-19T16:42:00.235Z,99.90
2019-05-19T16:44:42.004Z,99.90
2019-05-19T16:47:17.650Z,99.90
2019-05-19T16:49:59.423Z,99.90
2019-05-19T16:52:34.885Z,99.90
2019-05-19T16:55:24.940Z,99.90
2019-05-19T16:58:20.164Z,99.90
2019-05-19T17:00:44.098Z,99.90
2019-05-19T17:03:25.522Z,99.90
2019-05-19T17:06:00.313Z,99.90
2019-05-19T17:08:42.743Z,99.90
2019-05-19T17:11:18.607Z,99.90
2019-05-19T17:14:07.301Z,99.90
2019-05-19T17:16:55.901Z,99.90
2019-05-19T17:19:37.202Z,99.90
2019-05-19T17:22:25.109Z,99.90
2019-05-19T17:25:07.573Z,99.90
2019-05-19T17:27:55.770Z,99.90
2019-05-19T17:30:37.337Z,99.90
2019-05-19T17:33:25.510Z,99.90
2019-05-19T17:36:07.400Z,99.90
2019-05-19T17:38:56.007Z,99.90
2019-05-19T17:41:31.404Z,99.90
2019-05-19T17:44:13.830Z,99.90
2019-05-19T17:46:48.508Z,99.90
2019-05-19T17:49:30.410Z,99.90
2019-05-19T17:52:06.037Z,99.90
2019-05-19T17:54:48.136Z,99.90
2019-05-19T17:57:30.001Z,99.90
2019-05-19T18:00:05.817Z,99.90
2019-05-19T18:02:47.474Z,99.90
2019-05-19T18:05:22.682Z,99.90
2019-05-19T18:08:04.971Z,99.90
2019-05-19T18:10:40.021Z,99.90
2019-05-19T18:13:28.159Z,99.90
2019-05-19T18:16:10.623Z,99.90
2019-05-19T18:18:59.837Z,99.90
2019-05-19T18:21:42.230Z,99.90
2019-05-19T18:24:23.564Z,99.90
2019-05-19T18:27:05.583Z,99.90
2019-05-19T18:29:46.929Z,99.90
2019-05-19T18:32:22.497Z,99.90
2019-05-19T18:35:04.167Z,99.90
2019-05-19T18:37:39.886Z,99.90
2019-05-19T18:40:27.769Z,99.90
2019-05-19T18:43:03.259Z,99.90
2019-05-19T18:45:45.534Z,99.90
2019-05-19T18:48:23.189Z,99.90
2019-05-19T18:51:03.431Z,99.90
2019-05-19T18:53:45.059Z,99.90
2019-05-19T18:56:19.711Z,99.90
2019-05-19T18:59:01.893Z,99.90
2019-05-19T19:01:37.515Z,99.90
2019-05-19T19:04:19.669Z,99.90
2019-05-19T19:06:55.254Z,99.90
2019-05-19T19:09:36.862Z,99.90
2019-05-19T19:12:12.420Z,99.90
2019-05-19T19:15:00.721Z,99.90
2019-05-19T19:17:41.445Z,99.90
2019-05-19T19:20:30.361Z,99.90
2019-05-19T19:23:05.256Z,99.90
2019-05-19T19:25:47.270Z,99.90
2019-05-19T19:28:22.509Z,99.90
2019-05-19T19:31:04.585Z,99.90
2019-05-19T19:33:39.616Z,99.90
2019-05-19T19:36:21.233Z,99.90
2019-05-19T19:38:56.240Z,99.90
2019-05-19T19:41:38.377Z,99.90
2019-05-19T19:44:13.053Z,99.90
2019-05-19T19:46:55.267Z,99.90
2019-05-19T19:49:36.623Z,99.90
2019-05-19T19:52:12.133Z,99.90
2019-05-19T19:54:54.223Z,99.90
2019-05-19T19:57:29.141Z,99.90
2019-05-19T20:00:17.722Z,99.90
2019-05-19T20:02:47.296Z,99.90
2019-05-19T20:05:29.532Z,99.90
2019-05-19T20:08:04.329Z,99.90
2019-05-19T20:10:45.799Z,99.90
2019-05-19T20:13:20.767Z,99.90
2019-05-19T20:16:09.095Z,99.90
2019-05-19T20:18:56.459Z,99.90
2019-05-19T20:21:38.610Z,99.90
2019-05-19T20:24:20.717Z,99.90
2019-05-19T20:26:55.901Z,99.90
2019-05-19T20:29:37.624Z,99.90
2019-05-19T20:32:13.164Z,99.90
2019-05-19T20:34:54.821Z,99.90
2019-05-19T20:37:30.349Z,99.90
2019-05-19T20:40:23.379Z,99.90
2019-05-19T20:42:57.996Z,99.90
2019-05-19T20:45:39.683Z,99.90
2019-05-19T20:48:14.255Z,99.90
2019-05-19T20:50:55.976Z,99.90
2019-05-19T20:53:31.074Z,99.90
2019-05-19T20:56:12.708Z,99.90
2019-05-19T20:58:47.470Z,99.90
2019-05-19T21:01:29.467Z,99.90
2019-05-19T21:04:04.170Z,99.90
2019-05-19T21:06:45.840Z,99.90
2019-05-19T21:09:27.288Z,99.90
2019-05-19T21:12:02.176Z,99.90
2019-05-19T21:14:43.166Z,99.90
2019-05-19T21:17:17.948Z,99.90
2019-05-19T21:19:59.757Z,99.90
2019-05-19T21:22:34.376Z,99.90
2019-05-19T21:25:15.865Z,99.90
2019-05-19T21:27:50.877Z,99.90
2019-05-19T21:30:32.926Z,99.90
2019-05-19T21:33:08.529Z,99.90
2019-05-19T21:35:50.338Z,99.90
2019-05-19T21:38:25.109Z,99.90
2019-05-19T21:41:12.919Z,99.90
2019-05-19T21:43:48.505Z,99.90
2019-05-19T21:46:30.222Z,99.90
2019-05-19T21:49:04.878Z,99.90
2019-05-19T21:51:46.845Z,99.90
2019-05-19T21:54:22.420Z,99.90
2019-05-19T21:57:04.253Z,99.90
2019-05-19T21:59:46.304Z,99.90
2019-05-19T22:02:21.999Z,99.90
2019-05-19T22:05:06.623Z,99.90
2019-05-19T22:08:07.202Z,99.90
2019-05-19T22:10:49.733Z,99.90
2019-05-19T22:13:26.739Z,99.90
2019-05-19T22:16:13.315Z,99.90
2019-05-19T22:18:55.476Z,99.90
2019-05-19T22:21:43.907Z,99.90
2019-05-19T22:24:26.907Z,99.90
2019-05-19T22:27:15.770Z,99.90
2019-05-19T22:30:03.981Z,99.90
2019-05-19T22:32:44.654Z,99.90
2019-05-19T22:35:37.387Z,99.90
2019-05-19T22:38:19.416Z,99.90
2019-05-19T22:41:07.978Z,99.90
2019-05-19T22:43:43.106Z,99.90
2019-05-19T22:46:25.096Z,99.90
2019-05-19T22:49:01.241Z,99.90
2019-05-19T22:51:43.253Z,99.90
2019-05-19T22:54:26.578Z,99.90
2019-05-19T22:57:01.463Z,99.90
2019-05-19T22:59:43.584Z,99.90
2019-05-19T23:02:18.438Z,99.90
2019-05-19T23:05:00.446Z,99.90
2019-05-19T23:07:42.802Z,99.90
2019-05-19T23:10:19.993Z,99.90
2019-05-19T23:13:01.849Z,99.90
2019-05-19T23:15:36.642Z,99.90
2019-05-19T23:18:27.017Z,99.90
2019-05-19T23:21:09.568Z,99.90
2019-05-19T23:23:59.306Z,99.90
2019-05-19T23:26:47.587Z,99.90
2019-05-19T23:29:29.259Z,99.90
2019-05-19T23:32:20.448Z,99.90
2019-05-19T23:35:04.397Z,99.90
2019-05-19T23:37:51.707Z,99.90
2019-05-19T23:40:33.184Z,99.90
2019-05-19T23:43:14.925Z,99.90
2019-05-19T23:46:00.962Z,99.90
2019-05-19T23:48:42.143Z,99.90
2019-05-19T23:51:16.661Z,99.90
2019-05-19T23:53:58.742Z,99.90
2019-05-19T23:56:33.365Z,99.90
2019-05-19T23:59:15.697Z,99.90
